createdAt,value
2023-04-23T05:24:53.479Z,11.70
2023-04-23T05:27:20.314Z,11.60
2023-04-23T05:29:46.978Z,11.70
2023-04-23T05:32:13.955Z,11.80
2023-04-23T05:34:40.939Z,11.90
2023-04-23T05:37:07.827Z,12.00
2023-04-23T05:39:34.493Z,12.10
2023-04-23T05:42:02.221Z,12.10
2023-04-23T05:44:29.716Z,12.20
2023-04-23T05:46:56.417Z,12.20
2023-04-23T05:49:23.214Z,12.20
2023-04-23T05:51:51.581Z,12.30
2023-04-23T05:54:18.960Z,12.40
2023-04-23T05:56:45.942Z,12.50
2023-04-23T05:59:12.637Z,12.60
2023-04-23T06:01:39.329Z,12.80
2023-04-23T06:04:06.227Z,12.90
2023-04-23T06:06:33.222Z,13.00
2023-04-23T06:08:59.924Z,13.20
2023-04-23T06:11:26.968Z,13.20
2023-04-23T06:13:53.664Z,13.20
2023-04-23T06:16:20.403Z,13.20
2023-04-23T06:18:47.059Z,13.10
2023-04-23T06:21:14.231Z,13.00
2023-04-23T06:23:40.911Z,12.90
2023-04-23T06:26:07.583Z,12.90
2023-04-23T06:28:34.422Z,12.80
2023-04-23T06:31:20.106Z,12.90
2023-04-23T06:33:47.485Z,12.80
2023-04-23T06:36:14.740Z,12.80
2023-04-23T06:38:41.455Z,12.80
2023-04-23T06:41:08.255Z,12.70
2023-04-23T06:43:34.932Z,12.80
2023-04-23T06:46:16.641Z,12.80
2023-04-23T06:48:43.327Z,12.90
2023-04-23T06:51:10.046Z,13.00
2023-04-23T06:53:37.123Z,13.10
2023-04-23T06:56:03.920Z,13.10
2023-04-23T06:58:33.420Z,13.20
2023-04-23T07:01:07.376Z,13.10
2023-04-23T07:03:36.455Z,13.10
2023-04-23T07:06:03.456Z,13.20
2023-04-23T07:08:30.254Z,13.30
2023-04-23T07:10:56.977Z,13.40
2023-04-23T07:13:24.668Z,13.50
2023-04-23T07:15:51.337Z,13.60
2023-04-23T07:18:18.019Z,13.60
2023-04-23T07:20:44.775Z,13.70
2023-04-23T07:23:11.518Z,13.70
2023-04-23T07:25:38.319Z,13.50
2023-04-23T07:28:05.154Z,13.40
2023-04-23T07:30:31.957Z,13.30
2023-04-23T07:32:58.915Z,13.30
2023-04-23T07:35:26.864Z,13.40
2023-04-23T07:37:55.973Z,13.70
2023-04-23T07:40:23.635Z,13.80
2023-04-23T07:42:52.138Z,13.70
2023-04-23T07:45:19.382Z,13.70
2023-04-23T07:47:46.717Z,13.70
2023-04-23T07:50:13.886Z,13.70
2023-04-23T07:52:41.339Z,13.60
2023-04-23T07:55:08.623Z,13.50
2023-04-23T07:57:35.522Z,13.30
2023-04-23T08:00:02.980Z,13.30
2023-04-23T08:02:38.944Z,13.50
2023-04-23T08:05:06.799Z,13.70
2023-04-23T08:07:33.786Z,13.90
2023-04-23T08:10:04.161Z,14.10
2023-04-23T08:12:31.160Z,13.90
2023-04-23T08:14:58.200Z,13.90
2023-04-23T08:17:32.088Z,13.80
2023-04-23T08:19:59.043Z,13.60
2023-04-23T08:22:25.785Z,13.90
2023-04-23T08:24:52.988Z,14.10
2023-04-23T08:27:21.790Z,14.00
2023-04-23T08:29:48.616Z,13.70
2023-04-23T08:32:18.261Z,13.80
2023-04-23T08:34:44.986Z,14.50
2023-04-23T08:37:23.192Z,14.70
2023-04-23T08:39:57.062Z,14.80
2023-04-23T08:42:57.467Z,15.00
2023-04-23T08:45:26.168Z,15.50
2023-04-23T08:47:56.596Z,17.10
2023-04-23T08:50:24.506Z,17.00
2023-04-23T08:52:53.880Z,16.40
2023-04-23T08:55:22.674Z,16.60
2023-04-23T08:57:50.387Z,16.90
2023-04-23T09:00:20.033Z,16.90
2023-04-23T09:02:49.043Z,16.60
2023-04-23T09:05:16.696Z,16.90
2023-04-23T09:07:43.878Z,18.10
2023-04-23T09:10:17.719Z,20.70
2023-04-23T09:12:45.535Z,21.50
2023-04-23T09:15:13.422Z,22.10
2023-04-23T09:17:44.409Z,23.90
2023-04-23T09:20:12.184Z,25.10
2023-04-23T09:22:45.137Z,25.50
2023-04-23T09:25:18.395Z,25.70
2023-04-23T09:27:46.398Z,25.80
2023-04-23T09:30:14.017Z,26.30
2023-04-23T09:32:43.480Z,28.00
2023-04-23T09:35:13.524Z,28.10
2023-04-23T09:37:48.963Z,26.60
2023-04-23T09:40:22.260Z,25.90
2023-04-23T09:42:50.852Z,25.90
2023-04-23T09:45:17.789Z,25.90
2023-04-23T09:47:55.838Z,27.80
2023-04-23T09:50:40.159Z,28.80
2023-04-23T09:53:08.757Z,29.10
2023-04-23T09:55:38.932Z,29.30
2023-04-23T09:58:14.471Z,29.30
2023-04-23T10:00:50.007Z,28.80
2023-04-23T10:03:28.089Z,27.00
2023-04-23T10:06:02.021Z,26.40
2023-04-23T10:08:31.793Z,26.50
2023-04-23T10:11:13.769Z,28.20
2023-04-23T10:13:45.254Z,28.40
2023-04-23T10:16:22.289Z,27.80
2023-04-23T10:18:52.100Z,28.10
2023-04-23T10:21:20.219Z,28.40
2023-04-23T10:23:50.035Z,28.50
2023-04-23T10:26:17.251Z,28.80
2023-04-23T10:28:48.087Z,29.90
2023-04-23T10:31:15.979Z,30.70
2023-04-23T10:33:56.112Z,30.50
2023-04-23T10:36:27.542Z,29.10
2023-04-23T10:38:58.851Z,29.90
2023-04-23T10:41:34.401Z,30.40
2023-04-23T10:44:01.439Z,29.20
2023-04-23T10:46:32.372Z,28.20
2023-04-23T10:49:06.895Z,25.90
2023-04-23T10:54:09.911Z,27.30
2023-04-23T10:56:41.857Z,28.40
2023-04-23T10:59:19.045Z,29.40
2023-04-23T11:01:48.618Z,30.90
2023-04-23T11:04:21.516Z,31.20
2023-04-23T11:06:48.376Z,31.30
2023-04-23T11:09:31.635Z,32.50
2023-04-23T11:12:02.652Z,33.00
2023-04-23T11:14:56.989Z,33.40
2023-04-23T11:17:26.099Z,32.10
2023-04-23T11:20:11.835Z,30.60
2023-04-23T11:22:41.736Z,32.20
2023-04-23T11:25:18.884Z,32.70
2023-04-23T11:27:47.024Z,33.10
2023-04-23T11:30:18.147Z,33.40
2023-04-23T11:32:47.803Z,33.40
2023-04-23T11:35:16.679Z,34.10
2023-04-23T11:37:45.136Z,34.40
2023-04-23T11:40:14.282Z,33.60
2023-04-23T11:42:49.321Z,33.60
2023-04-23T11:45:24.275Z,33.20
2023-04-23T11:47:58.920Z,32.50
2023-04-23T11:50:28.496Z,32.90
2023-04-23T11:52:55.388Z,33.40
2023-04-23T11:55:23.989Z,34.00
2023-04-23T11:57:53.642Z,32.60
2023-04-23T12:00:22.820Z,31.80
2023-04-23T12:02:54.674Z,30.30
2023-04-23T12:05:27.147Z,29.00
2023-04-23T12:07:54.486Z,30.10
2023-04-23T12:10:22.240Z,31.70
2023-04-23T12:12:52.755Z,33.20
2023-04-23T12:15:20.489Z,34.00
2023-04-23T12:17:51.496Z,33.70
2023-04-23T12:20:22.334Z,31.00
2023-04-23T12:22:49.197Z,28.60
2023-04-23T12:25:15.990Z,26.90
2023-04-23T12:27:44.819Z,27.60
2023-04-23T12:30:12.220Z,26.90
2023-04-23T12:32:39.199Z,28.20
2023-04-23T12:35:06.580Z,28.40
2023-04-23T12:37:37.559Z,26.80
2023-04-23T12:40:07.226Z,25.30
2023-04-23T12:42:35.175Z,24.10
2023-04-23T12:45:07.383Z,24.40
2023-04-23T12:47:34.159Z,27.10
2023-04-23T12:50:01.513Z,29.30
2023-04-23T12:52:29.374Z,30.40
2023-04-23T12:54:57.575Z,31.80
2023-04-23T12:57:24.556Z,32.00
2023-04-23T12:59:51.513Z,30.90
2023-04-23T13:02:19.763Z,28.00
2023-04-23T13:04:46.602Z,25.60
2023-04-23T13:07:13.864Z,24.10
2023-04-23T13:09:40.771Z,23.00
2023-04-23T13:12:07.630Z,22.90
2023-04-23T13:14:34.371Z,23.70
2023-04-23T13:17:01.260Z,24.10
2023-04-23T13:19:28.115Z,24.10
2023-04-23T13:21:54.833Z,24.20
2023-04-23T13:24:21.752Z,26.20
2023-04-23T13:26:48.491Z,28.30
2023-04-23T13:29:16.360Z,28.90
2023-04-23T13:31:43.489Z,29.20
2023-04-23T13:34:10.459Z,29.90
2023-04-23T13:36:37.647Z,29.30
2023-04-23T13:39:04.369Z,28.60
2023-04-23T13:41:31.107Z,28.30
2023-04-23T13:43:57.748Z,27.50
2023-04-23T13:46:24.587Z,26.50
2023-04-23T13:48:53.468Z,25.40
2023-04-23T13:51:34.147Z,24.90
2023-04-23T13:54:02.895Z,25.10
2023-04-23T13:56:30.508Z,25.70
2023-04-23T13:59:19.397Z,25.20
2023-04-23T14:01:50.695Z,24.30
2023-04-23T14:04:18.424Z,24.50
2023-04-23T14:06:45.389Z,24.70
2023-04-23T14:09:12.101Z,24.80
2023-04-23T14:11:40.405Z,24.40
2023-04-23T14:14:07.798Z,24.60
2023-04-23T14:16:35.445Z,24.90
2023-04-23T14:19:02.232Z,24.70
2023-04-23T14:21:28.942Z,25.30
2023-04-23T14:24:00.878Z,25.70
2023-04-23T14:26:44.879Z,26.00
2023-04-23T14:29:24.416Z,26.50
2023-04-23T14:31:51.713Z,27.70
2023-04-23T14:34:18.434Z,28.40
2023-04-23T14:36:48.795Z,27.80
2023-04-23T14:39:15.757Z,26.90
2023-04-23T14:41:42.590Z,25.70
2023-04-23T14:44:09.357Z,24.50
2023-04-23T14:46:36.195Z,23.80
2023-04-23T14:49:03.023Z,23.40
2023-04-23T14:51:29.774Z,23.40
2023-04-23T14:53:56.920Z,24.40
2023-04-23T14:56:24.079Z,24.90
2023-04-23T14:58:50.876Z,24.80
2023-04-23T15:01:21.010Z,24.20
2023-04-23T15:03:47.824Z,23.40
2023-04-23T15:06:14.891Z,23.00
2023-04-23T15:08:41.551Z,22.90
2023-04-23T15:11:13.243Z,22.60
2023-04-23T15:14:00.332Z,22.80
2023-04-23T15:19:06.403Z,24.20
2023-04-23T15:21:33.251Z,24.90
2023-04-23T15:23:59.980Z,24.50
2023-04-23T15:26:27.406Z,23.50
2023-04-23T15:28:54.145Z,22.70
2023-04-23T15:31:20.817Z,22.20
2023-04-23T15:33:48.078Z,21.70
2023-04-23T15:36:14.900Z,21.50
2023-04-23T15:38:41.881Z,21.30
2023-04-23T15:41:08.748Z,20.90
2023-04-23T15:43:35.498Z,20.40
2023-04-23T15:46:02.239Z,20.10
2023-04-23T15:48:29.092Z,19.80
2023-04-23T15:50:56.345Z,19.80
2023-04-23T15:53:23.327Z,19.70
2023-04-23T15:55:51.405Z,19.50
2023-04-23T15:58:19.088Z,19.30
2023-04-23T16:00:46.037Z,19.30
2023-04-23T16:03:14.930Z,19.20
2023-04-23T16:05:42.347Z,19.30
2023-04-23T16:08:09.446Z,19.50
2023-04-23T16:10:38.251Z,19.40
2023-04-23T16:13:06.160Z,19.20
2023-04-23T16:15:33.104Z,19.00
2023-04-23T16:18:00.420Z,18.90
2023-04-23T16:20:28.170Z,18.80
2023-04-23T16:23:15.942Z,18.70
2023-04-23T16:25:43.506Z,18.60
2023-04-23T16:28:10.330Z,18.40
2023-04-23T16:30:37.048Z,18.30
2023-04-23T16:33:03.880Z,18.10
2023-04-23T16:35:30.826Z,17.90
2023-04-23T16:37:57.692Z,17.90
2023-04-23T16:40:25.420Z,17.90
2023-04-23T16:42:52.148Z,17.80
2023-04-23T16:45:22.905Z,17.60
2023-04-23T16:47:50.580Z,17.50
2023-04-23T16:50:17.386Z,17.40
2023-04-23T16:52:44.290Z,17.30
2023-04-23T16:55:11.298Z,17.20
2023-04-23T16:57:39.434Z,17.10
2023-04-23T17:00:06.908Z,17.10
2023-04-23T17:02:34.597Z,17.00
2023-04-23T17:05:01.925Z,16.90
2023-04-23T17:07:30.692Z,16.90
2023-04-23T17:09:57.602Z,16.80
2023-04-23T17:12:24.436Z,16.80
2023-04-23T17:14:51.171Z,16.70
2023-04-23T17:17:17.912Z,16.70
2023-04-23T17:19:45.690Z,16.60
2023-04-23T17:22:12.677Z,16.60
2023-04-23T17:24:39.648Z,16.50
2023-04-23T17:27:06.495Z,16.50
2023-04-23T17:29:33.200Z,16.40
2023-04-23T17:32:00.052Z,16.30
2023-04-23T17:34:26.868Z,16.20
2023-04-23T17:36:53.623Z,16.20
2023-04-23T17:39:22.890Z,16.20
2023-04-23T17:41:49.652Z,16.10
2023-04-23T17:44:16.416Z,16.00
2023-04-23T17:46:43.186Z,16.00
2023-04-23T17:49:10.682Z,15.90
2023-04-23T17:51:37.544Z,15.80
2023-04-23T17:54:04.863Z,15.70
2023-04-23T17:56:31.912Z,15.60
2023-04-23T17:58:58.668Z,15.40
2023-04-23T18:01:25.765Z,15.30
2023-04-23T18:03:53.409Z,15.20
2023-04-23T18:06:20.563Z,15.10
2023-04-23T18:08:47.470Z,15.00
2023-04-23T18:11:14.248Z,14.80
2023-04-23T18:13:41.234Z,14.60
2023-04-23T18:16:08.126Z,14.40
2023-04-23T18:18:35.985Z,14.20
2023-04-23T18:21:04.603Z,14.10
2023-04-23T18:23:32.046Z,13.90
2023-04-23T18:26:01.462Z,13.70
2023-04-23T18:28:32.807Z,13.60
2023-04-23T18:31:05.190Z,13.60
2023-04-23T18:33:49.430Z,13.60
2023-04-23T18:36:29.211Z,13.50
2023-04-23T18:38:56.546Z,13.60
2023-04-23T18:41:24.720Z,13.60
2023-04-23T18:43:51.458Z,13.60
2023-04-23T18:46:19.411Z,13.60
2023-04-23T18:48:51.235Z,13.50
2023-04-23T18:51:17.941Z,13.50
2023-04-23T18:53:46.698Z,13.50
2023-04-23T18:56:13.770Z,13.40
2023-04-23T18:58:41.505Z,13.30
2023-04-23T19:01:08.357Z,13.30
2023-04-23T19:03:35.817Z,13.30
2023-04-23T19:06:07.952Z,13.30
2023-04-23T19:08:37.903Z,13.20
2023-04-23T19:11:04.919Z,13.20
2023-04-23T19:13:31.698Z,13.30
2023-04-23T19:15:59.199Z,13.30
2023-04-23T19:18:26.132Z,13.30
2023-04-23T19:20:53.038Z,13.20
2023-04-23T19:23:20.450Z,13.10
2023-04-23T19:25:47.929Z,13.10
2023-04-23T19:28:14.733Z,13.10
2023-04-23T19:30:41.780Z,13.10
2023-04-23T19:33:08.657Z,13.00
2023-04-23T19:35:36.772Z,13.00
2023-04-23T19:38:04.735Z,12.90
2023-04-23T19:40:31.522Z,12.80
2023-04-23T19:42:58.410Z,12.70
2023-04-23T19:45:26.816Z,12.70
2023-04-23T19:47:53.804Z,12.60
2023-04-23T19:50:20.798Z,12.50
2023-04-23T19:52:47.593Z,12.40
2023-04-23T19:55:15.580Z,12.30
2023-04-23T19:57:42.292Z,12.20
2023-04-23T20:00:14.036Z,12.10
2023-04-23T20:02:41.278Z,12.00
2023-04-23T20:05:10.364Z,12.00
2023-04-23T20:07:37.937Z,11.90
2023-04-23T20:10:05.296Z,11.80
2023-04-23T20:12:33.258Z,11.70
2023-04-23T20:15:00.256Z,11.60
2023-04-23T20:17:27.582Z,11.60
2023-04-23T20:19:55.038Z,11.50
2023-04-23T20:22:21.742Z,11.50
2023-04-23T20:24:48.924Z,11.40
2023-04-23T20:27:18.670Z,11.40
2023-04-23T20:29:46.111Z,11.50
2023-04-23T20:32:13.192Z,11.50
2023-04-23T20:34:40.507Z,11.60
2023-04-23T20:37:08.621Z,11.60
2023-04-23T20:39:38.598Z,11.60
2023-04-23T20:42:06.430Z,11.50
2023-04-23T20:44:34.354Z,11.30
2023-04-23T20:47:04.781Z,11.20
2023-04-23T20:49:32.243Z,11.20
2023-04-23T20:51:59.738Z,11.10
2023-04-23T20:54:26.571Z,11.10
2023-04-23T20:56:54.158Z,11.10
2023-04-23T20:59:21.885Z,11.20
2023-04-23T21:01:49.205Z,11.10
2023-04-23T21:04:16.310Z,11.00
2023-04-23T21:06:43.427Z,11.00
2023-04-23T21:09:11.243Z,10.90
2023-04-23T21:11:38.189Z,10.90
2023-04-23T21:14:08.709Z,10.80
2023-04-23T21:16:36.705Z,10.70
2023-04-23T21:19:04.915Z,10.70
2023-04-23T21:21:32.473Z,10.70
2023-04-23T21:24:00.708Z,10.70
2023-04-23T21:26:29.190Z,10.70
2023-04-23T21:28:56.455Z,10.80
2023-04-23T21:31:39.432Z,10.90
2023-04-23T21:34:06.116Z,10.90
2023-04-23T21:36:32.787Z,10.80
2023-04-23T21:38:59.745Z,10.80
2023-04-23T21:41:26.436Z,10.80
2023-04-23T21:43:53.852Z,10.90
2023-04-23T21:46:22.825Z,11.00
2023-04-23T21:48:50.312Z,11.00
2023-04-23T21:51:17.833Z,11.20
2023-04-23T21:53:44.660Z,11.30
2023-04-23T21:56:11.346Z,11.40
2023-04-23T21:58:38.045Z,11.50
2023-04-23T22:01:04.817Z,11.60
2023-04-23T22:03:38.838Z,11.70
